createdAt,value
2022-10-29T00:00:30.787Z,95.30
2022-10-29T00:02:36.160Z,95.30
2022-10-29T00:04:41.074Z,95.20
2022-10-29T00:06:46.485Z,95.10
2022-10-29T00:08:51.471Z,95.20
2022-10-29T00:11:07.854Z,95.20
2022-10-29T00:13:13.154Z,95.40
2022-10-29T00:15:18.266Z,95.40
2022-10-29T00:17:24.517Z,95.40
2022-10-29T00:19:30.368Z,95.30
2022-10-29T00:21:38.202Z,95.40
2022-10-29T00:23:44.505Z,95.50
2022-10-29T00:25:49.448Z,95.60
2022-10-29T00:27:59.100Z,95.70
2022-10-29T00:30:04.092Z,95.40
2022-10-29T00:32:10.415Z,95.40
2022-10-29T00:34:15.417Z,95.40
2022-10-29T00:36:23.385Z,95.50
2022-10-29T00:38:29.692Z,95.70
2022-10-29T00:40:39.740Z,95.80
2022-10-29T00:42:45.006Z,95.80
2022-10-29T00:44:52.566Z,95.70
2022-10-29T00:47:05.377Z,95.70
2022-10-29T00:49:11.688Z,95.40
2022-10-29T00:51:18.431Z,95.40
2022-10-29T00:53:29.347Z,95.50
2022-10-29T00:55:34.828Z,95.30
2022-10-29T00:57:44.673Z,95.40
2022-10-29T00:59:53.624Z,95.70
2022-10-29T01:01:58.761Z,95.70
2022-10-29T01:04:04.493Z,95.50
2022-10-29T01:06:11.156Z,95.40
2022-10-29T01:08:16.989Z,95.70
2022-10-29T01:10:31.891Z,95.60
2022-10-29T01:13:09.983Z,95.40
2022-10-29T01:15:29.539Z,95.40
2022-10-29T01:17:48.780Z,95.50
2022-10-29T01:20:29.660Z,95.60
2022-10-29T01:22:39.755Z,95.50
2022-10-29T01:24:58.277Z,95.50
2022-10-29T01:28:00.375Z,95.50
2022-10-29T01:30:21.424Z,95.30
2022-10-29T01:32:37.427Z,95.00
2022-10-29T01:34:52.607Z,95.00
2022-10-29T01:37:03.334Z,95.30
2022-10-29T01:39:18.214Z,95.70
2022-10-29T01:41:33.280Z,95.60
2022-10-29T01:43:44.401Z,95.80
2022-10-29T01:45:54.273Z,96.00
2022-10-29T01:48:08.604Z,96.10
2022-10-29T01:50:18.472Z,96.20
2022-10-29T01:52:25.758Z,96.00
2022-10-29T01:54:31.039Z,96.10
2022-10-29T01:56:36.804Z,96.30
2022-10-29T01:58:43.109Z,96.30
2022-10-29T02:01:02.843Z,96.30
2022-10-29T02:03:30.161Z,96.30
2022-10-29T02:05:39.154Z,96.20
2022-10-29T02:07:52.968Z,96.20
2022-10-29T02:10:06.128Z,96.00
2022-10-29T02:12:19.934Z,95.80
2022-10-29T02:14:30.806Z,95.80
2022-10-29T02:16:37.164Z,95.70
2022-10-29T02:18:50.833Z,95.90
2022-10-29T02:20:56.058Z,96.10
2022-10-29T02:23:01.685Z,95.90
2022-10-29T02:25:08.681Z,95.80
2022-10-29T02:27:13.709Z,95.90
2022-10-29T02:29:18.660Z,96.20
2022-10-29T02:31:24.139Z,96.10
2022-10-29T02:33:29.229Z,96.10
2022-10-29T02:35:37.099Z,95.90
2022-10-29T02:37:42.058Z,95.90
2022-10-29T02:39:46.995Z,95.90
2022-10-29T02:41:52.486Z,96.00
2022-10-29T02:43:57.810Z,96.40
2022-10-29T02:46:23.039Z,96.50
2022-10-29T02:48:28.296Z,96.50
2022-10-29T02:50:37.221Z,96.60
2022-10-29T02:52:43.757Z,96.50
2022-10-29T02:54:49.016Z,96.40
2022-10-29T02:56:51.741Z,96.30
2022-10-29T02:58:56.808Z,96.20
2022-10-29T03:01:02.268Z,96.00
2022-10-29T03:03:07.845Z,95.90
2022-10-29T03:05:13.586Z,95.90
2022-10-29T03:07:21.134Z,96.10
2022-10-29T03:09:26.714Z,96.30
2022-10-29T03:11:31.680Z,96.30
2022-10-29T03:16:01.849Z,96.00
2022-10-29T03:18:07.230Z,96.20
2022-10-29T03:20:13.572Z,96.40
2022-10-29T03:22:21.120Z,96.50
2022-10-29T03:24:26.167Z,96.50
2022-10-29T03:26:31.467Z,96.50
2022-10-29T03:28:36.468Z,96.40
2022-10-29T03:30:41.453Z,96.30
2022-10-29T03:32:50.388Z,96.40
2022-10-29T03:34:59.025Z,96.30
2022-10-29T03:37:04.956Z,96.40
2022-10-29T03:39:13.198Z,96.40
2022-10-29T03:41:18.138Z,96.50
2022-10-29T03:43:23.804Z,96.30
2022-10-29T03:45:30.225Z,96.30
2022-10-29T03:47:36.672Z,96.30
2022-10-29T03:49:41.632Z,96.40
2022-10-29T03:51:47.147Z,96.30
2022-10-29T03:53:52.818Z,96.60
2022-10-29T03:56:00.452Z,96.70
2022-10-29T03:58:05.886Z,96.70
2022-10-29T04:00:13.287Z,96.70
2022-10-29T04:02:18.377Z,96.80
2022-10-29T04:04:23.484Z,97.00
2022-10-29T04:06:28.438Z,97.10
2022-10-29T04:08:33.760Z,97.30
2022-10-29T04:10:38.703Z,97.20
2022-10-29T04:12:50.745Z,97.20
2022-10-29T04:14:56.965Z,97.30
2022-10-29T04:17:02.964Z,97.30
2022-10-29T04:19:07.955Z,97.30
2022-10-29T04:28:47.814Z,97.10
2022-10-29T04:30:53.465Z,97.00
2022-10-29T04:33:02.710Z,96.90
2022-10-29T04:35:09.858Z,97.00
2022-10-29T04:37:15.491Z,96.80
2022-10-29T04:39:23.411Z,96.80
2022-10-29T04:41:28.490Z,96.70
2022-10-29T04:43:36.035Z,96.70
2022-10-29T04:45:41.113Z,96.60
2022-10-29T04:47:46.100Z,96.60
2022-10-29T04:49:51.121Z,96.70
2022-10-29T04:51:56.098Z,96.80
2022-10-29T04:54:01.081Z,96.90
2022-10-29T04:56:06.964Z,97.00
2022-10-29T04:58:18.170Z,97.00
2022-10-29T05:00:26.864Z,96.80
2022-10-29T05:02:32.252Z,96.90
2022-10-29T05:04:37.367Z,96.70
2022-10-29T05:06:44.081Z,96.80
2022-10-29T05:08:49.232Z,96.80
2022-10-29T05:10:54.482Z,96.80
2022-10-29T05:13:01.138Z,96.70
2022-10-29T05:15:07.181Z,96.70
2022-10-29T05:17:15.236Z,96.70
2022-10-29T05:19:20.624Z,96.70
2022-10-29T05:21:26.008Z,96.70
2022-10-29T05:23:31.697Z,96.70
2022-10-29T05:25:41.495Z,96.60
2022-10-29T05:27:46.479Z,96.60
2022-10-29T05:29:51.454Z,96.30
2022-10-29T05:31:57.081Z,96.30
2022-10-29T05:34:04.685Z,96.30
2022-10-29T05:36:10.476Z,96.30
2022-10-29T05:38:18.485Z,96.40
2022-10-29T05:40:23.797Z,96.30
2022-10-29T05:42:28.828Z,96.50
2022-10-29T05:44:33.845Z,96.40
2022-10-29T05:46:38.804Z,96.30
2022-10-29T05:48:43.807Z,96.30
2022-10-29T05:50:51.476Z,96.30
2022-10-29T05:53:00.745Z,96.30
2022-10-29T05:55:06.103Z,96.30
2022-10-29T05:57:11.083Z,96.20
2022-10-29T05:59:16.039Z,96.20
2022-10-29T06:01:21.986Z,96.30
2022-10-29T06:03:27.032Z,96.20
2022-10-29T06:05:32.054Z,96.30
2022-10-29T06:07:39.690Z,96.40
2022-10-29T06:09:44.683Z,96.20
2022-10-29T06:11:50.073Z,96.10
2022-10-29T06:13:58.176Z,96.10
2022-10-29T06:16:03.891Z,96.10
2022-10-29T06:18:09.154Z,96.00
2022-10-29T06:20:16.284Z,96.00
2022-10-29T06:22:21.296Z,96.00
2022-10-29T06:24:30.494Z,96.00
2022-10-29T06:26:37.517Z,96.00
2022-10-29T06:28:42.494Z,96.00
2022-10-29T06:42:45.838Z,96.00
2022-10-29T06:44:53.551Z,96.10
2022-10-29T06:46:58.799Z,96.20
2022-10-29T06:49:04.044Z,96.20
2022-10-29T06:51:09.345Z,96.30
2022-10-29T06:53:17.560Z,96.20
2022-10-29T06:55:22.545Z,96.10
2022-10-29T06:57:27.536Z,96.20
2022-10-29T06:59:32.569Z,96.30
2022-10-29T07:01:40.195Z,96.30
2022-10-29T07:03:45.833Z,96.20
2022-10-29T07:05:57.435Z,96.20
2022-10-29T07:08:03.966Z,96.00
2022-10-29T07:10:09.870Z,96.10
2022-10-29T07:12:14.950Z,96.00
2022-10-29T07:14:20.350Z,95.90
2022-10-29T07:16:25.556Z,95.80
2022-10-29T07:18:34.951Z,95.90
2022-10-29T07:20:42.954Z,95.80
2022-10-29T07:22:51.511Z,95.70
2022-10-29T07:25:00.183Z,95.70
2022-10-29T07:27:07.303Z,95.70
2022-10-29T07:29:12.475Z,95.70
2022-10-29T07:31:17.466Z,95.70
2022-10-29T07:33:23.713Z,95.80
2022-10-29T07:35:32.179Z,95.70
2022-10-29T07:37:38.284Z,95.60
2022-10-29T07:39:43.900Z,95.50
2022-10-29T07:41:49.012Z,95.40
2022-10-29T07:43:53.975Z,95.30
2022-10-29T07:45:59.268Z,95.30
2022-10-29T07:48:07.464Z,95.10
2022-10-29T07:50:13.160Z,95.20
2022-10-29T07:52:20.823Z,95.00
2022-10-29T07:54:26.254Z,94.90
2022-10-29T07:56:31.323Z,94.80
2022-10-29T07:58:36.539Z,94.80
2022-10-29T08:00:43.556Z,94.70
2022-10-29T08:02:56.194Z,94.90
2022-10-29T08:05:01.172Z,94.90
2022-10-29T08:07:06.192Z,94.70
2022-10-29T08:09:14.266Z,94.60
2022-10-29T08:11:19.591Z,94.40
2022-10-29T08:13:24.836Z,94.40
2022-10-29T08:15:31.691Z,94.20
2022-10-29T08:17:37.605Z,93.80
2022-10-29T08:19:42.761Z,93.90
2022-10-29T08:21:47.726Z,93.70
2022-10-29T08:23:52.894Z,94.00
2022-10-29T08:26:00.891Z,93.80
2022-10-29T08:28:07.916Z,94.10
2022-10-29T08:30:16.358Z,94.20
2022-10-29T08:32:21.368Z,93.90
2022-10-29T08:34:26.379Z,93.70
2022-10-29T08:36:31.388Z,93.70
2022-10-29T08:38:36.898Z,93.80
2022-10-29T08:40:59.375Z,93.70
2022-10-29T08:43:47.168Z,93.70
2022-10-29T08:45:55.256Z,93.60
2022-10-29T08:48:24.605Z,92.90
2022-10-29T08:50:33.559Z,93.00
2022-10-29T08:52:53.054Z,92.10
2022-10-29T08:55:16.462Z,91.90
2022-10-29T08:57:24.415Z,91.10
2022-10-29T08:59:39.698Z,90.50
2022-10-29T09:01:44.913Z,89.40
2022-10-29T09:03:50.078Z,89.50
2022-10-29T09:06:10.169Z,89.80
2022-10-29T09:08:33.892Z,90.00
2022-10-29T09:10:49.026Z,90.10
2022-10-29T09:13:11.239Z,90.00
2022-10-29T09:15:54.791Z,89.20
2022-10-29T09:18:21.652Z,89.30
2022-10-29T09:20:48.318Z,89.30
2022-10-29T09:23:06.974Z,88.90
2022-10-29T09:25:21.483Z,89.20
2022-10-29T09:27:32.725Z,88.60
2022-10-29T09:29:54.613Z,87.90
2022-10-29T09:32:06.211Z,87.90
2022-10-29T09:34:19.936Z,87.50
2022-10-29T09:36:26.880Z,87.00
2022-10-29T09:38:37.347Z,87.00
2022-10-29T09:40:44.771Z,87.10
2022-10-29T09:42:50.888Z,87.10
2022-10-29T09:44:59.408Z,87.30
2022-10-29T09:47:19.713Z,86.70
2022-10-29T09:49:43.815Z,86.40
2022-10-29T09:51:56.833Z,85.70
2022-10-29T09:54:02.929Z,85.40
2022-10-29T09:56:11.816Z,85.60
2022-10-29T09:58:24.078Z,85.80
2022-10-29T10:00:32.871Z,85.50
2022-10-29T10:02:45.610Z,84.70
2022-10-29T10:04:53.414Z,84.90
2022-10-29T10:07:09.124Z,84.90
2022-10-29T10:09:14.133Z,84.90
2022-10-29T10:11:22.734Z,85.60
2022-10-29T10:13:30.673Z,85.60
2022-10-29T10:15:38.283Z,85.00
2022-10-29T10:18:06.589Z,84.10
2022-10-29T10:20:31.842Z,84.20
2022-10-29T10:22:36.826Z,82.60
2022-10-29T10:24:43.572Z,83.90
2022-10-29T10:26:48.969Z,82.90
2022-10-29T10:29:14.755Z,83.40
2022-10-29T10:31:20.038Z,82.60
2022-10-29T10:33:30.561Z,83.00
2022-10-29T10:35:38.149Z,82.30
2022-10-29T10:37:43.196Z,80.70
2022-10-29T10:39:52.918Z,80.60
2022-10-29T10:42:01.111Z,81.50
2022-10-29T10:44:16.313Z,80.70
2022-10-29T10:46:27.682Z,80.30
2022-10-29T10:51:23.203Z,77.40
2022-10-29T10:53:28.894Z,76.40
2022-10-29T10:55:38.058Z,76.90
2022-10-29T10:57:51.379Z,77.40
2022-10-29T11:00:06.517Z,77.20
2022-10-29T11:02:26.381Z,77.60
2022-10-29T11:04:40.007Z,78.00
2022-10-29T11:06:51.105Z,76.10
2022-10-29T11:09:00.894Z,77.30
2022-10-29T11:11:13.622Z,78.00
2022-10-29T11:13:23.432Z,75.10
2022-10-29T11:15:38.935Z,75.70
2022-10-29T11:17:54.432Z,76.10
2022-10-29T11:20:06.313Z,76.10
2022-10-29T11:22:23.105Z,77.40
2022-10-29T11:24:37.921Z,75.50
2022-10-29T11:26:48.238Z,77.50
2022-10-29T11:28:59.571Z,76.00
2022-10-29T11:31:14.580Z,75.00
2022-10-29T11:33:27.008Z,73.70
2022-10-29T11:35:44.266Z,75.10
2022-10-29T11:37:59.466Z,73.00
2022-10-29T11:40:14.187Z,73.40
2022-10-29T11:42:19.307Z,71.90
2022-10-29T11:44:24.500Z,72.80
2022-10-29T11:46:41.524Z,70.00
2022-10-29T11:48:57.458Z,70.80
2022-10-29T11:51:14.440Z,70.60
2022-10-29T11:53:35.031Z,71.90
2022-10-29T11:55:49.349Z,71.00
2022-10-29T11:57:59.460Z,70.30
2022-10-29T12:00:16.820Z,69.40
2022-10-29T12:02:40.335Z,70.90
2022-10-29T12:04:56.851Z,70.60
2022-10-29T12:07:25.290Z,70.50
2022-10-29T12:10:22.298Z,71.20
2022-10-29T12:12:37.024Z,72.10
2022-10-29T12:14:48.567Z,70.40
2022-10-29T12:17:03.847Z,69.40
2022-10-29T12:19:24.260Z,69.50
2022-10-29T12:21:41.991Z,67.70
2022-10-29T12:24:00.907Z,69.80
2022-10-29T12:26:13.881Z,69.90
2022-10-29T12:28:27.563Z,69.10
2022-10-29T12:30:40.694Z,68.70
2022-10-29T12:32:56.074Z,66.90
2022-10-29T12:35:07.873Z,68.30
2022-10-29T12:37:19.765Z,67.00
2022-10-29T12:39:32.685Z,67.40
2022-10-29T12:41:44.054Z,63.70
2022-10-29T12:43:50.502Z,65.80
2022-10-29T12:48:41.233Z,66.00
2022-10-29T12:50:59.677Z,67.10
2022-10-29T12:53:19.013Z,66.00
2022-10-29T12:55:27.238Z,66.90
2022-10-29T12:57:35.411Z,67.20
2022-10-29T12:59:40.953Z,68.50
2022-10-29T13:04:34.193Z,69.90
2022-10-29T13:06:58.509Z,66.00
2022-10-29T13:09:19.949Z,66.70
2022-10-29T13:11:45.189Z,68.20
2022-10-29T13:14:00.899Z,68.90
2022-10-29T13:16:10.364Z,69.20
2022-10-29T13:18:26.241Z,68.30
2022-10-29T13:20:41.150Z,69.00
2022-10-29T13:22:58.574Z,69.50
2022-10-29T13:25:49.160Z,69.90
2022-10-29T13:27:56.829Z,69.70
2022-10-29T13:30:25.433Z,69.40
2022-10-29T13:32:38.968Z,71.40
2022-10-29T14:02:59.891Z,74.20
2022-10-29T14:05:17.237Z,73.30
2022-10-29T14:07:30.710Z,72.10
2022-10-29T14:09:45.963Z,73.90
2022-10-29T14:12:00.599Z,76.00
2022-10-29T14:14:08.344Z,74.10
2022-10-29T14:16:16.664Z,74.50
2022-10-29T14:18:28.456Z,75.20
2022-10-29T14:20:34.072Z,74.50
2022-10-29T14:22:41.764Z,77.10
2022-10-29T14:24:47.973Z,78.70
2022-10-29T14:27:12.196Z,78.50
2022-10-29T14:29:21.877Z,78.10
2022-10-29T14:34:36.609Z,77.10
2022-10-29T14:36:46.066Z,80.90
2022-10-29T14:38:54.987Z,81.50
2022-10-29T14:41:00.047Z,81.60
2022-10-29T14:43:05.764Z,81.50
2022-10-29T14:45:21.668Z,81.30
2022-10-29T14:47:33.288Z,81.10
2022-10-29T14:49:48.867Z,80.70
2022-10-29T14:51:58.260Z,80.60
2022-10-29T14:54:05.433Z,79.80
2022-10-29T14:56:21.460Z,80.30
2022-10-29T14:58:31.624Z,80.60
2022-10-29T15:00:39.692Z,81.60
2022-10-29T15:02:45.105Z,82.50
2022-10-29T15:05:03.126Z,83.10
2022-10-29T15:07:31.986Z,83.40
2022-10-29T15:09:37.215Z,84.50
2022-10-29T15:11:45.280Z,85.00
2022-10-29T15:13:50.685Z,85.00
2022-10-29T15:16:03.217Z,84.90
2022-10-29T15:18:19.656Z,84.70
2022-10-29T15:20:31.945Z,84.70
2022-10-29T15:22:41.010Z,85.00
2022-10-29T15:24:48.545Z,84.90
2022-10-29T15:26:57.476Z,85.80
2022-10-29T15:29:03.071Z,85.60
2022-10-29T15:31:08.480Z,86.30
2022-10-29T15:33:20.367Z,86.80
2022-10-29T15:35:27.969Z,86.50
2022-10-29T15:37:48.895Z,86.90
2022-10-29T15:40:09.193Z,86.90
2022-10-29T15:42:24.867Z,87.30
2022-10-29T15:44:40.743Z,87.40
2022-10-29T15:46:53.414Z,87.80
2022-10-29T15:48:59.023Z,87.80
2022-10-29T15:51:07.248Z,88.30
2022-10-29T15:53:17.712Z,88.40
2022-10-29T15:55:28.641Z,88.30
2022-10-29T15:57:35.988Z,88.50
2022-10-29T15:59:42.834Z,88.70
2022-10-29T16:01:48.332Z,88.80
2022-10-29T16:03:53.359Z,89.10
2022-10-29T16:06:03.852Z,89.40
2022-10-29T16:08:26.791Z,89.30
2022-10-29T16:10:31.963Z,89.50
2022-10-29T16:12:37.676Z,89.80
2022-10-29T16:14:42.611Z,89.60
2022-10-29T16:16:48.556Z,90.20
2022-10-29T16:18:54.596Z,90.60
2022-10-29T16:21:07.024Z,90.10
2022-10-29T16:23:16.039Z,90.50
2022-10-29T16:25:27.454Z,90.10
2022-10-29T16:27:32.631Z,90.70
2022-10-29T16:29:37.534Z,90.80
2022-10-29T16:31:42.448Z,91.30
2022-10-29T16:33:47.675Z,91.40
2022-10-29T16:35:52.698Z,91.00
2022-10-29T16:37:59.435Z,91.10
2022-10-29T16:40:08.703Z,91.00
2022-10-29T16:42:33.346Z,91.40
2022-10-29T16:44:38.522Z,91.10
2022-10-29T16:46:43.450Z,91.40
2022-10-29T16:48:48.462Z,92.40
2022-10-29T16:50:53.524Z,92.10
2022-10-29T16:53:03.614Z,91.80
2022-10-29T16:55:12.298Z,92.10
2022-10-29T16:57:17.290Z,91.90
2022-10-29T16:59:22.337Z,92.00
2022-10-29T17:01:27.299Z,92.20
2022-10-29T17:03:34.296Z,92.20
2022-10-29T17:05:40.074Z,92.60
2022-10-29T17:07:45.165Z,92.60
2022-10-29T17:09:50.068Z,92.80
2022-10-29T17:11:57.559Z,92.40
2022-10-29T17:14:02.767Z,92.80
2022-10-29T17:16:14.647Z,93.00
2022-10-29T17:18:19.575Z,93.00
2022-10-29T17:20:24.571Z,93.00
2022-10-29T17:22:29.739Z,93.00
2022-10-29T17:24:34.791Z,93.00
2022-10-29T17:26:40.073Z,93.20
2022-10-29T17:28:47.559Z,93.60
2022-10-29T17:30:52.745Z,93.10
2022-10-29T17:32:58.067Z,93.30
2022-10-29T17:35:03.447Z,93.00
2022-10-29T17:37:09.394Z,93.20
2022-10-29T17:39:14.561Z,93.30
2022-10-29T17:41:19.685Z,93.30
2022-10-29T17:43:24.760Z,93.40
2022-10-29T17:45:32.853Z,93.40
2022-10-29T17:47:37.735Z,93.60
2022-10-29T17:49:42.802Z,93.20
2022-10-29T17:51:47.821Z,93.10
2022-10-29T17:53:52.789Z,93.30
2022-10-29T17:56:00.964Z,93.30
2022-10-29T17:58:05.866Z,93.50
2022-10-29T18:00:13.175Z,93.40
2022-10-29T18:02:20.787Z,94.00
2022-10-29T18:04:25.969Z,94.10
2022-10-29T18:06:30.974Z,94.20
2022-10-29T18:08:38.867Z,93.70
2022-10-29T18:10:43.804Z,93.70
2022-10-29T18:12:48.872Z,93.90
2022-10-29T18:14:53.874Z,93.90
2022-10-29T18:16:58.845Z,93.80
2022-10-29T18:19:06.967Z,93.50
2022-10-29T18:21:16.353Z,93.50
2022-10-29T18:23:21.288Z,93.70
2022-10-29T18:25:26.281Z,94.10
2022-10-29T18:27:31.422Z,94.00
2022-10-29T18:29:36.405Z,94.10
2022-10-29T18:31:45.010Z,94.40
2022-10-29T18:33:50.239Z,94.70
2022-10-29T18:35:59.543Z,94.40
2022-10-29T18:38:04.497Z,94.10
2022-10-29T18:40:11.987Z,94.20
2022-10-29T18:42:16.927Z,94.40
2022-10-29T18:44:21.930Z,94.30
2022-10-29T18:46:26.977Z,94.50
2022-10-29T18:48:32.232Z,94.50
2022-10-29T18:50:37.190Z,94.50
2022-10-29T18:52:44.714Z,94.40
2022-10-29T18:54:49.704Z,94.20
2022-10-29T18:56:55.058Z,94.30
2022-10-29T18:59:01.412Z,94.30
2022-10-29T19:01:08.271Z,94.60
2022-10-29T19:03:13.971Z,94.20
2022-10-29T19:05:19.220Z,94.80
2022-10-29T19:07:24.200Z,94.60
2022-10-29T19:09:32.172Z,94.50
2022-10-29T19:11:37.714Z,94.80
2022-10-29T19:13:42.747Z,94.70
2022-10-29T19:15:47.725Z,95.00
2022-10-29T19:17:52.715Z,94.70
2022-10-29T19:19:57.639Z,94.60
2022-10-29T19:22:02.565Z,94.60
2022-10-29T19:24:10.177Z,94.70
2022-10-29T19:26:21.228Z,94.60
2022-10-29T19:28:26.313Z,94.70
2022-10-29T19:30:31.237Z,94.90
2022-10-29T19:32:36.177Z,94.80
2022-10-29T19:34:41.198Z,94.80
2022-10-29T19:36:46.160Z,94.70
2022-10-29T19:38:51.502Z,95.00
2022-10-29T19:40:57.536Z,95.20
2022-10-29T19:43:05.167Z,95.00
2022-10-29T19:45:12.033Z,94.70
2022-10-29T19:47:17.014Z,94.50
2022-10-29T19:49:23.300Z,94.40
2022-10-29T19:51:28.808Z,94.70
2022-10-29T19:53:34.182Z,94.90
2022-10-29T19:55:42.544Z,94.50
2022-10-29T19:57:47.458Z,94.90
2022-10-29T19:59:55.369Z,95.10
2022-10-29T20:02:00.834Z,94.90
2022-10-29T20:04:06.259Z,94.90
2022-10-29T20:06:11.530Z,94.80
2022-10-29T20:08:18.086Z,95.00
2022-10-29T20:10:24.044Z,95.10
2022-10-29T20:12:29.131Z,95.00
2022-10-29T20:14:35.924Z,95.00
2022-10-29T20:16:43.647Z,94.90
2022-10-29T20:18:49.559Z,95.00
2022-10-29T20:20:59.051Z,95.10
2022-10-29T20:23:04.335Z,95.10
2022-10-29T20:25:11.308Z,94.90
2022-10-29T20:27:16.621Z,94.80
2022-10-29T20:29:21.752Z,94.70
2022-10-29T20:34:18.731Z,94.90
2022-10-29T20:36:24.669Z,94.70
2022-10-29T20:38:30.048Z,94.70
2022-10-29T20:40:35.458Z,94.70
2022-10-29T20:42:40.542Z,94.90
2022-10-29T20:44:46.012Z,95.10
2022-10-29T20:46:51.305Z,95.30
2022-10-29T20:48:57.058Z,94.90
2022-10-29T20:51:04.680Z,95.00
2022-10-29T20:55:36.657Z,95.60
2022-10-29T20:57:42.012Z,95.50
2022-10-29T20:59:46.970Z,95.70
2022-10-29T21:01:52.089Z,95.40
2022-10-29T21:03:57.860Z,95.40
2022-10-29T21:06:11.116Z,95.40
2022-10-29T21:08:18.934Z,95.30
2022-10-29T21:10:23.911Z,95.30
2022-10-29T21:12:28.871Z,95.30
2022-10-29T21:14:33.913Z,95.10
2022-10-29T21:16:39.364Z,95.10
2022-10-29T21:18:46.580Z,95.60
2022-10-29T21:20:51.596Z,95.30
2022-10-29T21:22:59.808Z,95.30
2022-10-29T21:25:04.952Z,95.50
2022-10-29T21:27:10.027Z,95.50
2022-10-29T21:29:14.974Z,95.40
2022-10-29T21:31:20.536Z,95.40
2022-10-29T21:33:25.512Z,95.30
2022-10-29T21:35:30.451Z,95.20
2022-10-29T21:37:35.484Z,95.20
2022-10-29T21:39:43.032Z,95.30
2022-10-29T21:41:47.954Z,95.20
2022-10-29T21:43:53.218Z,95.40
2022-10-29T21:45:58.426Z,95.40
2022-10-29T21:48:03.582Z,95.10
2022-10-29T21:50:10.513Z,95.30
2022-10-29T21:52:15.629Z,95.20
2022-10-29T21:54:23.042Z,95.20
2022-10-29T21:56:33.295Z,95.30
2022-10-29T21:58:38.917Z,95.30
2022-10-29T22:00:43.857Z,95.50
2022-10-29T22:02:49.138Z,95.50
2022-10-29T22:04:54.566Z,95.40
2022-10-29T22:07:00.050Z,95.70
2022-10-29T22:09:05.480Z,95.70
2022-10-29T22:11:11.555Z,95.40
2022-10-29T22:13:19.073Z,95.30
2022-10-29T22:15:24.462Z,95.30
2022-10-29T22:17:31.514Z,95.30
2022-10-29T22:19:36.513Z,95.30
2022-10-29T22:21:41.904Z,95.50
2022-10-29T22:23:48.560Z,95.50
2022-10-29T22:25:53.738Z,95.30
2022-10-29T22:27:59.054Z,95.40
2022-10-29T22:30:08.490Z,95.40
2022-10-29T22:32:14.536Z,95.30
2022-10-29T22:34:20.028Z,95.20
2022-10-29T22:36:28.269Z,95.20
2022-10-29T22:38:33.272Z,95.20
2022-10-29T22:40:43.268Z,95.20
2022-10-29T22:42:48.196Z,95.20
2022-10-29T22:44:53.115Z,95.30
2022-10-29T22:47:00.638Z,95.30
2022-10-29T22:49:05.646Z,95.50
2022-10-29T22:51:14.808Z,95.50
2022-10-29T22:53:19.850Z,95.50
2022-10-29T22:55:24.780Z,95.60
2022-10-29T22:57:29.781Z,95.60
2022-10-29T22:59:34.744Z,95.50
2022-10-29T23:01:44.303Z,95.60
2022-10-29T23:03:53.585Z,95.60
2022-10-29T23:06:02.295Z,95.70
2022-10-29T23:08:08.119Z,95.70
2022-10-29T23:10:13.296Z,95.70
2022-10-29T23:12:18.283Z,95.70
2022-10-29T23:14:23.548Z,95.60
2022-10-29T23:16:31.488Z,95.90
2022-10-29T23:18:36.981Z,95.70
2022-10-29T23:20:44.926Z,95.60
2022-10-29T23:22:49.901Z,95.70
2022-10-29T23:24:55.051Z,95.70
2022-10-29T23:26:59.991Z,95.70
2022-10-29T23:29:05.217Z,95.70
2022-10-29T23:31:14.521Z,95.70
2022-10-29T23:33:19.459Z,95.90
2022-10-29T23:35:24.440Z,95.70
2022-10-29T23:37:31.947Z,95.70
2022-10-29T23:39:36.857Z,95.70
2022-10-29T23:41:41.811Z,95.90
2022-10-29T23:43:46.734Z,95.80
2022-10-29T23:45:51.895Z,95.70
2022-10-29T23:47:57.102Z,95.60
2022-10-29T23:50:02.269Z,95.50
2022-10-29T23:52:07.743Z,95.70
2022-10-29T23:54:15.207Z,95.70
2022-10-29T23:56:20.113Z,95.60
2022-10-29T23:58:25.271Z,95.70
